»·PEaware :: N74201 L88-KSBP

N74201 :: L88-KSBP

FLIGHT INFORMATION

Flight Status: Arrived
Operator: Privately registered:
United States
More flights under this callsign
Pilot: Jeff W. (31011)
Aircraft: CESSNA 172 SKYHAWK
(C172)
More flights by this aircraft type
Origin: L88 New Cuyama
United States
Destination: KSBP San Luis Co Regl
United States
More flights between these airports :: More routes between these airports
Route:
File this flight plan on PilotEdge
Remarks: Cat-02
Altitude:
(Current/Filed)
6,500ft
Speed:
(Current/Filed)
114kts
Departed: 08-Jan-21 02:17 PM
Arrived: 08-Jan-21 02:49 PM
Distance/Time
Traveled:
50nm/0:31
Distance/Time
To Go:
Arrived

Flight Plot

Page will automatically refresh every two minutes.


Map Options




Map Legend


Flown Route
Filed Route
Departure Airport
Arrival Airport
Navaid (VOR, NDB)
Fix

Horizontal Profiles

Position Reports

Time Latitude Longitude Heading Altitude Ground
Speed
08-Jan-21 14:07 34.939968 -119.693830 23 2206ft 0kts
08-Jan-21 14:08 34.939968 -119.693830 23 2206ft 0kts
08-Jan-21 14:09 34.939968 -119.693830 23 2206ft 0kts
08-Jan-21 14:10 34.939968 -119.693830 23 2206ft 0kts
08-Jan-21 14:11 34.939985 -119.693821 22 2206ft 0kts
08-Jan-21 14:12 34.939998 -119.693812 29 2206ft 0kts
08-Jan-21 14:13 34.939971 -119.693631 140 2206ft 3kts
08-Jan-21 14:14 34.937465 -119.688357 103 2206ft 27kts
08-Jan-21 14:15 34.935209 -119.682575 288 2206ft 7kts
08-Jan-21 14:16 34.940509 -119.702679 281 2320ft 96kts
08-Jan-21 14:17 34.950608 -119.732793 303 2758ft 95kts
08-Jan-21 14:19 34.961450 -119.762013 293 3255ft 93kts
08-Jan-21 14:20 34.970679 -119.791037 293 3750ft 90kts
08-Jan-21 14:21 34.979554 -119.819150 292 4244ft 87kts
08-Jan-21 14:22 34.988119 -119.846308 291 4737ft 84kts
08-Jan-21 14:23 34.996385 -119.872542 290 5231ft 81kts
08-Jan-21 14:24 35.004331 -119.897783 289 5723ft 78kts
08-Jan-21 14:25 35.011998 -119.922159 287 6208ft 76kts
08-Jan-21 14:26 35.020558 -119.949460 288 6253ft 91kts
08-Jan-21 14:27 35.029766 -119.978792 288 6250ft 92kts
08-Jan-21 14:28 35.038954 -120.008096 288 6250ft 92kts
08-Jan-21 14:29 35.048209 -120.037643 288 6250ft 92kts
08-Jan-21 14:30 35.056596 -120.067369 286 6250ft 92kts
08-Jan-21 14:30 35.063443 -120.092251 286 6250ft 92kts
08-Jan-21 14:32 35.072996 -120.126972 286 6228ft 94kts
08-Jan-21 14:33 35.081681 -120.160388 286 5573ft 102kts
08-Jan-21 14:33 35.088975 -120.187950 288 5005ft 102kts
08-Jan-21 14:34 35.097527 -120.221650 288 4343ft 103kts
08-Jan-21 14:36 35.106861 -120.260204 288 4253ft 105kts
08-Jan-21 14:37 35.115222 -120.294660 288 4250ft 105kts
08-Jan-21 14:37 35.122211 -120.323461 288 4250ft 106kts
08-Jan-21 14:38 35.130580 -120.357933 288 4250ft 105kts
08-Jan-21 14:39 35.139479 -120.392267 289 4250ft 105kts
08-Jan-21 14:40 35.148775 -120.427502 292 4098ft 111kts
08-Jan-21 14:41 35.160341 -120.462844 293 3901ft 113kts
08-Jan-21 14:42 35.168529 -120.499633 268 3711ft 115kts
08-Jan-21 14:43 35.178108 -120.537584 305 3178ft 122kts
08-Jan-21 14:44 35.195218 -120.567339 306 2537ft 100kts
08-Jan-21 14:45 35.208763 -120.590994 306 1844ft 78kts
08-Jan-21 14:46 35.221123 -120.612634 306 1112ft 73kts
08-Jan-21 14:47 35.232938 -120.633381 305 268ft 65kts
08-Jan-21 14:48 35.237407 -120.640191 3 215ft 0kts
08-Jan-21 14:49 35.238373 -120.640958 303 215ft 12kts
08-Jan-21 14:50 35.239724 -120.642158 189 215ft 0kts
08-Jan-21 14:51 35.239724 -120.642158 189 215ft 0kts
08-Jan-21 14:52 35.239724 -120.642158 189 215ft 0kts
08-Jan-21 14:53 35.239724 -120.642158 189 215ft 0kts
08-Jan-21 14:54 35.237963 -120.639041 359 215ft 0kts
08-Jan-21 14:55 35.237963 -120.639041 359 215ft 0kts
08-Jan-21 14:56 35.237963 -120.639041 359 215ft 0kts

Navigation Log

Ident Type
Flight plan parsing failed, navigation log unavailable